sensor_id;sensor_type;location;lat;lon;timestamp;temperature;humidity
68109;SHT30;54893;49.864;19.084;2023-04-15T00:00:49;8.53;78.09
68109;SHT30;54893;49.864;19.084;2023-04-15T00:05:51;8.56;77.83
68109;SHT30;54893;49.864;19.084;2023-04-15T00:10:52;8.76;76.32
68109;SHT30;54893;49.864;19.084;2023-04-15T00:15:52;8.75;76.03
68109;SHT30;54893;49.864;19.084;2023-04-15T00:20:53;8.60;77.12
68109;SHT30;54893;49.864;19.084;2023-04-15T00:25:53;8.68;76.69
68109;SHT30;54893;49.864;19.084;2023-04-15T00:30:54;8.45;77.13
68109;SHT30;54893;49.864;19.084;2023-04-15T00:35:54;8.31;77.27
68109;SHT30;54893;49.864;19.084;2023-04-15T00:40:55;8.25;77.93
68109;SHT30;54893;49.864;19.084;2023-04-15T00:45:55;8.49;77.07
68109;SHT30;54893;49.864;19.084;2023-04-15T00:50:58;8.25;77.69
68109;SHT30;54893;49.864;19.084;2023-04-15T00:55:58;8.14;78.33
68109;SHT30;54893;49.864;19.084;2023-04-15T01:00:58;8.15;78.06
68109;SHT30;54893;49.864;19.084;2023-04-15T01:05:59;7.80;79.07
68109;SHT30;54893;49.864;19.084;2023-04-15T01:11:00;7.63;80.07
68109;SHT30;54893;49.864;19.084;2023-04-15T01:16:02;7.56;79.81
68109;SHT30;54893;49.864;19.084;2023-04-15T01:21:04;7.70;78.85
68109;SHT30;54893;49.864;19.084;2023-04-15T01:26:07;7.60;78.64
68109;SHT30;54893;49.864;19.084;2023-04-15T01:31:10;7.39;79.15
68109;SHT30;54893;49.864;19.084;2023-04-15T01:36:11;6.99;81.20
68109;SHT30;54893;49.864;19.084;2023-04-15T01:41:12;7.05;80.15
68109;SHT30;54893;49.864;19.084;2023-04-15T01:46:13;6.95;80.01
68109;SHT30;54893;49.864;19.084;2023-04-15T01:51:14;7.10;79.56
68109;SHT30;54893;49.864;19.084;2023-04-15T01:56:14;7.00;80.01
68109;SHT30;54893;49.864;19.084;2023-04-15T02:01:15;6.52;81.44
68109;SHT30;54893;49.864;19.084;2023-04-15T02:06:16;6.53;82.59
68109;SHT30;54893;49.864;19.084;2023-04-15T02:11:17;6.71;81.11
68109;SHT30;54893;49.864;19.084;2023-04-15T02:16:19;6.55;82.49
68109;SHT30;54893;49.864;19.084;2023-04-15T02:21:19;6.48;80.98
68109;SHT30;54893;49.864;19.084;2023-04-15T02:26:19;6.45;80.92
68109;SHT30;54893;49.864;19.084;2023-04-15T02:31:21;6.21;81.88
68109;SHT30;54893;49.864;19.084;2023-04-15T02:36:21;5.94;83.32
68109;SHT30;54893;49.864;19.084;2023-04-15T02:41:22;5.71;82.52
68109;SHT30;54893;49.864;19.084;2023-04-15T02:46:26;5.77;83.77
68109;SHT30;54893;49.864;19.084;2023-04-15T02:51:29;5.77;83.36
68109;SHT30;54893;49.864;19.084;2023-04-15T02:56:31;5.66;83.45
68109;SHT30;54893;49.864;19.084;2023-04-15T03:01:31;5.51;85.02
68109;SHT30;54893;49.864;19.084;2023-04-15T03:06:31;5.64;83.64
68109;SHT30;54893;49.864;19.084;2023-04-15T03:11:32;5.61;82.42
68109;SHT30;54893;49.864;19.084;2023-04-15T03:16:32;5.69;81.71
68109;SHT30;54893;49.864;19.084;2023-04-15T03:21:33;5.75;82.16
68109;SHT30;54893;49.864;19.084;2023-04-15T03:26:33;5.74;82.59
68109;SHT30;54893;49.864;19.084;2023-04-15T03:31:33;5.42;83.72
68109;SHT30;54893;49.864;19.084;2023-04-15T03:36:34;5.27;83.33
68109;SHT30;54893;49.864;19.084;2023-04-15T03:41:34;5.32;83.19
68109;SHT30;54893;49.864;19.084;2023-04-15T03:46:34;5.44;83.41
68109;SHT30;54893;49.864;19.084;2023-04-15T03:51:35;5.23;83.72
68109;SHT30;54893;49.864;19.084;2023-04-15T03:56:36;5.20;83.33
68109;SHT30;54893;49.864;19.084;2023-04-15T04:01:36;5.36;83.28
68109;SHT30;54893;49.864;19.084;2023-04-15T04:06:36;5.40;82.99
68109;SHT30;54893;49.864;19.084;2023-04-15T04:11:37;5.54;82.61
68109;SHT30;54893;49.864;19.084;2023-04-15T04:16:37;5.67;81.60
68109;SHT30;54893;49.864;19.084;2023-04-15T04:21:37;5.66;81.39
68109;SHT30;54893;49.864;19.084;2023-04-15T04:26:38;5.98;80.41
68109;SHT30;54893;49.864;19.084;2023-04-15T04:31:39;6.20;80.16
68109;SHT30;54893;49.864;19.084;2023-04-15T04:36:39;6.28;80.06
68109;SHT30;54893;49.864;19.084;2023-04-15T04:41:40;6.49;79.09
68109;SHT30;54893;49.864;19.084;2023-04-15T04:46:40;6.67;79.14
68109;SHT30;54893;49.864;19.084;2023-04-15T04:51:41;6.34;81.08
68109;SHT30;54893;49.864;19.084;2023-04-15T04:56:41;6.24;82.19
68109;SHT30;54893;49.864;19.084;2023-04-15T05:01:41;6.46;82.28
68109;SHT30;54893;49.864;19.084;2023-04-15T05:06:42;6.81;83.88
68109;SHT30;54893;49.864;19.084;2023-04-15T05:11:42;7.40;81.85
68109;SHT30;54893;49.864;19.084;2023-04-15T05:16:42;7.73;81.52
68109;SHT30;54893;49.864;19.084;2023-04-15T05:21:43;7.90;79.92
68109;SHT30;54893;49.864;19.084;2023-04-15T05:26:43;8.55;78.63
68109;SHT30;54893;49.864;19.084;2023-04-15T05:31:44;8.90;78.79
68109;SHT30;54893;49.864;19.084;2023-04-15T05:36:44;9.27;77.85
68109;SHT30;54893;49.864;19.084;2023-04-15T05:41:44;9.65;77.10
68109;SHT30;54893;49.864;19.084;2023-04-15T05:46:45;10.15;74.70
68109;SHT30;54893;49.864;19.084;2023-04-15T05:51:46;10.25;72.03
68109;SHT30;54893;49.864;19.084;2023-04-15T05:56:48;11.07;73.72
68109;SHT30;54893;49.864;19.084;2023-04-15T06:01:48;11.74;71.42
68109;SHT30;54893;49.864;19.084;2023-04-15T06:06:49;12.02;70.06
68109;SHT30;54893;49.864;19.084;2023-04-15T06:11:50;11.87;71.50
68109;SHT30;54893;49.864;19.084;2023-04-15T06:16:51;11.60;67.23
68109;SHT30;54893;49.864;19.084;2023-04-15T06:21:51;11.81;69.95
68109;SHT30;54893;49.864;19.084;2023-04-15T06:26:51;11.95;69.23
68109;SHT30;54893;49.864;19.084;2023-04-15T06:31:52;11.88;69.90
68109;SHT30;54893;49.864;19.084;2023-04-15T06:36:52;12.14;69.89
68109;SHT30;54893;49.864;19.084;2023-04-15T06:41:53;11.70;68.69
68109;SHT30;54893;49.864;19.084;2023-04-15T06:46:54;12.34;68.72
68109;SHT30;54893;49.864;19.084;2023-04-15T06:51:54;12.39;67.65
68109;SHT30;54893;49.864;19.084;2023-04-15T06:56:55;13.16;66.94
68109;SHT30;54893;49.864;19.084;2023-04-15T07:01:55;12.32;68.19
68109;SHT30;54893;49.864;19.084;2023-04-15T07:06:56;13.13;67.81
68109;SHT30;54893;49.864;19.084;2023-04-15T07:11:56;12.72;66.55
68109;SHT30;54893;49.864;19.084;2023-04-15T07:16:56;13.00;67.00
68109;SHT30;54893;49.864;19.084;2023-04-15T07:21:57;12.95;67.92
68109;SHT30;54893;49.864;19.084;2023-04-15T07:26:57;13.94;65.12
68109;SHT30;54893;49.864;19.084;2023-04-15T07:31:58;14.96;64.50
68109;SHT30;54893;49.864;19.084;2023-04-15T07:36:58;14.18;63.64
68109;SHT30;54893;49.864;19.084;2023-04-15T07:41:59;14.39;64.18
68109;SHT30;54893;49.864;19.084;2023-04-15T07:47:00;15.36;63.63
68109;SHT30;54893;49.864;19.084;2023-04-15T07:52:01;15.40;62.01
68109;SHT30;54893;49.864;19.084;2023-04-15T07:57:01;14.85;63.88
68109;SHT30;54893;49.864;19.084;2023-04-15T08:02:02;14.86;61.54
68109;SHT30;54893;49.864;19.084;2023-04-15T08:07:03;15.55;60.32
68109;SHT30;54893;49.864;19.084;2023-04-15T08:12:04;15.27;63.04
68109;SHT30;54893;49.864;19.084;2023-04-15T08:17:04;15.04;60.29
68109;SHT30;54893;49.864;19.084;2023-04-15T08:22:05;14.96;62.82
68109;SHT30;54893;49.864;19.084;2023-04-15T08:27:06;14.26;64.44
68109;SHT30;54893;49.864;19.084;2023-04-15T08:32:07;14.33;65.05
68109;SHT30;54893;49.864;19.084;2023-04-15T08:37:08;13.82;63.52
68109;SHT30;54893;49.864;19.084;2023-04-15T08:42:16;14.21;64.83
68109;SHT30;54893;49.864;19.084;2023-04-15T08:47:19;14.56;64.97
68109;SHT30;54893;49.864;19.084;2023-04-15T08:52:20;14.48;62.82
68109;SHT30;54893;49.864;19.084;2023-04-15T08:57:25;14.41;64.44
68109;SHT30;54893;49.864;19.084;2023-04-15T09:02:26;13.32;64.41
68109;SHT30;54893;49.864;19.084;2023-04-15T09:07:26;14.36;64.34
68109;SHT30;54893;49.864;19.084;2023-04-15T09:12:27;14.29;64.34
68109;SHT30;54893;49.864;19.084;2023-04-15T09:17:27;14.31;64.70
68109;SHT30;54893;49.864;19.084;2023-04-15T09:22:31;14.09;65.62
68109;SHT30;54893;49.864;19.084;2023-04-15T09:27:35;14.41;63.95
68109;SHT30;54893;49.864;19.084;2023-04-15T09:37:50;14.66;64.57
68109;SHT30;54893;49.864;19.084;2023-04-15T09:42:54;14.71;63.08
68109;SHT30;54893;49.864;19.084;2023-04-15T09:47:57;14.95;63.05
68109;SHT30;54893;49.864;19.084;2023-04-15T09:52:57;15.70;61.68
68109;SHT30;54893;49.864;19.084;2023-04-15T09:57:58;15.46;61.35
68109;SHT30;54893;49.864;19.084;2023-04-15T10:02:59;14.86;60.16
68109;SHT30;54893;49.864;19.084;2023-04-15T10:07:59;15.00;62.82
68109;SHT30;54893;49.864;19.084;2023-04-15T10:13:01;14.90;62.88
68109;SHT30;54893;49.864;19.084;2023-04-15T10:18:04;14.87;63.12
68109;SHT30;54893;49.864;19.084;2023-04-15T10:23:05;14.56;62.14
68109;SHT30;54893;49.864;19.084;2023-04-15T10:28:06;14.33;63.51
68109;SHT30;54893;49.864;19.084;2023-04-15T10:33:08;14.12;65.02
68109;SHT30;54893;49.864;19.084;2023-04-15T10:38:31;13.37;64.48
68109;SHT30;54893;49.864;19.084;2023-04-15T10:43:31;14.36;64.99
68109;SHT30;54893;49.864;19.084;2023-04-15T10:48:32;15.27;63.81
68109;SHT30;54893;49.864;19.084;2023-04-15T10:53:32;15.07;62.13
68109;SHT30;54893;49.864;19.084;2023-04-15T10:58:42;15.26;60.90
68109;SHT30;54893;49.864;19.084;2023-04-15T11:03:43;16.22;61.38
68109;SHT30;54893;49.864;19.084;2023-04-15T11:13:55;16.77;57.68
68109;SHT30;54893;49.864;19.084;2023-04-15T11:18:55;16.76;60.15
68109;SHT30;54893;49.864;19.084;2023-04-15T11:23:56;15.67;56.27
68109;SHT30;54893;49.864;19.084;2023-04-15T11:28:56;15.77;59.43
68109;SHT30;54893;49.864;19.084;2023-04-15T11:33:59;16.05;57.26
68109;SHT30;54893;49.864;19.084;2023-04-15T11:39:00;16.71;57.74
68109;SHT30;54893;49.864;19.084;2023-04-15T11:44:01;16.29;50.82
68109;SHT30;54893;49.864;19.084;2023-04-15T11:49:01;17.46;56.01
68109;SHT30;54893;49.864;19.084;2023-04-15T11:54:01;18.62;52.57
68109;SHT30;54893;49.864;19.084;2023-04-15T11:59:02;17.29;51.94
68109;SHT30;54893;49.864;19.084;2023-04-15T12:04:13;16.32;55.35
68109;SHT30;54893;49.864;19.084;2023-04-15T12:09:15;16.26;57.75
68109;SHT30;54893;49.864;19.084;2023-04-15T12:14:26;15.77;55.29
68109;SHT30;54893;49.864;19.084;2023-04-15T12:19:34;15.63;54.60
68109;SHT30;54893;49.864;19.084;2023-04-15T12:24:36;15.85;55.30
68109;SHT30;54893;49.864;19.084;2023-04-15T12:29:38;16.62;55.84
68109;SHT30;54893;49.864;19.084;2023-04-15T12:34:42;15.71;54.94
68109;SHT30;54893;49.864;19.084;2023-04-15T12:39:46;16.14;56.80
68109;SHT30;54893;49.864;19.084;2023-04-15T12:44:47;15.74;56.60
68109;SHT30;54893;49.864;19.084;2023-04-15T12:49:48;15.68;57.99
68109;SHT30;54893;49.864;19.084;2023-04-15T12:54:48;15.58;56.56
68109;SHT30;54893;49.864;19.084;2023-04-15T12:59:49;15.41;57.36
68109;SHT30;54893;49.864;19.084;2023-04-15T13:04:49;14.82;55.40
68109;SHT30;54893;49.864;19.084;2023-04-15T13:09:51;14.68;56.17
68109;SHT30;54893;49.864;19.084;2023-04-15T13:14:51;14.82;58.11
68109;SHT30;54893;49.864;19.084;2023-04-15T13:19:52;14.92;58.85
68109;SHT30;54893;49.864;19.084;2023-04-15T13:24:52;14.82;60.97
68109;SHT30;54893;49.864;19.084;2023-04-15T13:29:53;14.43;61.27
68109;SHT30;54893;49.864;19.084;2023-04-15T13:34:53;14.53;60.64
68109;SHT30;54893;49.864;19.084;2023-04-15T13:39:55;14.22;61.20
68109;SHT30;54893;49.864;19.084;2023-04-15T13:44:56;13.95;61.85
68109;SHT30;54893;49.864;19.084;2023-04-15T13:49:56;13.70;63.35
68109;SHT30;54893;49.864;19.084;2023-04-15T13:54:57;13.22;64.33
68109;SHT30;54893;49.864;19.084;2023-04-15T13:59:57;12.73;66.63
68109;SHT30;54893;49.864;19.084;2023-04-15T14:04:57;12.52;67.09
68109;SHT30;54893;49.864;19.084;2023-04-15T14:09:59;12.31;67.90
68109;SHT30;54893;49.864;19.084;2023-04-15T14:14:59;12.06;73.77
68109;SHT30;54893;49.864;19.084;2023-04-15T14:19:59;11.60;76.86
68109;SHT30;54893;49.864;19.084;2023-04-15T14:25:00;11.57;77.96
68109;SHT30;54893;49.864;19.084;2023-04-15T14:30:00;12.01;77.87
68109;SHT30;54893;49.864;19.084;2023-04-15T14:35:01;12.59;75.89
68109;SHT30;54893;49.864;19.084;2023-04-15T14:40:01;12.79;71.99
68109;SHT30;54893;49.864;19.084;2023-04-15T14:45:02;12.89;69.99
68109;SHT30;54893;49.864;19.084;2023-04-15T14:50:02;13.00;69.28
68109;SHT30;54893;49.864;19.084;2023-04-15T14:55:05;12.73;72.14
68109;SHT30;54893;49.864;19.084;2023-04-15T15:00:08;12.29;73.94
68109;SHT30;54893;49.864;19.084;2023-04-15T15:05:09;12.10;75.53
68109;SHT30;54893;49.864;19.084;2023-04-15T15:10:09;11.99;74.54
68109;SHT30;54893;49.864;19.084;2023-04-15T15:15:10;11.46;75.03
68109;SHT30;54893;49.864;19.084;2023-04-15T15:20:10;10.75;76.60
68109;SHT30;54893;49.864;19.084;2023-04-15T15:25:11;9.74;82.89
68109;SHT30;54893;49.864;19.084;2023-04-15T15:30:11;9.30;85.54
68109;SHT30;54893;49.864;19.084;2023-04-15T15:35:12;9.14;87.06
68109;SHT30;54893;49.864;19.084;2023-04-15T15:40:12;8.65;87.93
68109;SHT30;54893;49.864;19.084;2023-04-15T15:45:13;8.65;87.43
68109;SHT30;54893;49.864;19.084;2023-04-15T15:50:13;8.48;87.82
68109;SHT30;54893;49.864;19.084;2023-04-15T15:55:13;8.58;86.85
68109;SHT30;54893;49.864;19.084;2023-04-15T16:00:14;8.65;87.45
68109;SHT30;54893;49.864;19.084;2023-04-15T16:05:14;8.39;88.51
68109;SHT30;54893;49.864;19.084;2023-04-15T16:10:15;8.45;87.68
68109;SHT30;54893;49.864;19.084;2023-04-15T16:15:15;8.44;87.60
68109;SHT30;54893;49.864;19.084;2023-04-15T16:20:16;8.38;88.19
68109;SHT30;54893;49.864;19.084;2023-04-15T16:25:16;8.52;87.45
68109;SHT30;54893;49.864;19.084;2023-04-15T16:30:17;8.62;86.80
68109;SHT30;54893;49.864;19.084;2023-04-15T16:35:17;8.79;86.24
68109;SHT30;54893;49.864;19.084;2023-04-15T16:40:18;8.70;89.94
68109;SHT30;54893;49.864;19.084;2023-04-15T16:45:18;8.52;89.08
68109;SHT30;54893;49.864;19.084;2023-04-15T16:50:18;8.48;88.55
68109;SHT30;54893;49.864;19.084;2023-04-15T16:55:19;8.38;90.00
68109;SHT30;54893;49.864;19.084;2023-04-15T17:00:19;8.37;90.31
68109;SHT30;54893;49.864;19.084;2023-04-15T17:05:20;8.24;87.88
68109;SHT30;54893;49.864;19.084;2023-04-15T17:10:21;8.20;92.53
68109;SHT30;54893;49.864;19.084;2023-04-15T17:15:22;8.09;92.98
68109;SHT30;54893;49.864;19.084;2023-04-15T17:20:22;8.06;89.79
68109;SHT30;54893;49.864;19.084;2023-04-15T17:25:22;8.20;91.69
68109;SHT30;54893;49.864;19.084;2023-04-15T17:30:23;8.21;88.20
68109;SHT30;54893;49.864;19.084;2023-04-15T17:35:23;8.27;88.19
68109;SHT30;54893;49.864;19.084;2023-04-15T17:40:25;8.29;88.51
68109;SHT30;54893;49.864;19.084;2023-04-15T17:45:25;8.27;88.89
68109;SHT30;54893;49.864;19.084;2023-04-15T17:50:26;8.22;89.07
68109;SHT30;54893;49.864;19.084;2023-04-15T17:55:26;8.27;89.30
68109;SHT30;54893;49.864;19.084;2023-04-15T18:00:26;8.09;92.37
68109;SHT30;54893;49.864;19.084;2023-04-15T18:05:27;7.94;95.48
68109;SHT30;54893;49.864;19.084;2023-04-15T18:10:28;7.83;95.34
68109;SHT30;54893;49.864;19.084;2023-04-15T18:15:29;7.77;96.33
68109;SHT30;54893;49.864;19.084;2023-04-15T18:20:30;7.70;96.54
68109;SHT30;54893;49.864;19.084;2023-04-15T18:25:32;7.71;91.74
68109;SHT30;54893;49.864;19.084;2023-04-15T18:30:33;7.78;90.87
68109;SHT30;54893;49.864;19.084;2023-04-15T18:35:33;7.74;91.53
68109;SHT30;54893;49.864;19.084;2023-04-15T18:40:34;7.64;93.70
68109;SHT30;54893;49.864;19.084;2023-04-15T18:45:35;7.46;95.18
68109;SHT30;54893;49.864;19.084;2023-04-15T18:50:35;7.33;94.32
68109;SHT30;54893;49.864;19.084;2023-04-15T18:55:37;7.23;95.55
68109;SHT30;54893;49.864;19.084;2023-04-15T19:00:37;7.17;96.01
68109;SHT30;54893;49.864;19.084;2023-04-15T19:05:40;7.12;97.37
68109;SHT30;54893;49.864;19.084;2023-04-15T19:10:41;7.07;97.33
68109;SHT30;54893;49.864;19.084;2023-04-15T19:15:42;7.06;97.20
68109;SHT30;54893;49.864;19.084;2023-04-15T19:20:42;7.15;96.86
68109;SHT30;54893;49.864;19.084;2023-04-15T19:25:42;7.22;96.49
68109;SHT30;54893;49.864;19.084;2023-04-15T19:30:43;7.17;94.07
68109;SHT30;54893;49.864;19.084;2023-04-15T19:35:43;7.20;93.43
68109;SHT30;54893;49.864;19.084;2023-04-15T19:40:43;7.23;95.40
68109;SHT30;54893;49.864;19.084;2023-04-15T19:45:44;7.09;95.48
68109;SHT30;54893;49.864;19.084;2023-04-15T19:50:46;6.97;96.24
68109;SHT30;54893;49.864;19.084;2023-04-15T19:55:46;7.09;91.56
68109;SHT30;54893;49.864;19.084;2023-04-15T20:00:47;7.20;92.10
68109;SHT30;54893;49.864;19.084;2023-04-15T20:05:47;7.20;92.33
68109;SHT30;54893;49.864;19.084;2023-04-15T20:10:48;7.26;92.10
68109;SHT30;54893;49.864;19.084;2023-04-15T20:15:48;7.30;93.17
68109;SHT30;54893;49.864;19.084;2023-04-15T20:20:48;7.26;94.53
68109;SHT30;54893;49.864;19.084;2023-04-15T20:25:49;7.22;95.23
68109;SHT30;54893;49.864;19.084;2023-04-15T20:30:49;7.03;97.21
68109;SHT30;54893;49.864;19.084;2023-04-15T20:35:53;6.93;97.63
68109;SHT30;54893;49.864;19.084;2023-04-15T20:40:54;6.93;97.67
68109;SHT30;54893;49.864;19.084;2023-04-15T20:45:54;7.03;97.49
68109;SHT30;54893;49.864;19.084;2023-04-15T20:50:55;7.03;97.17
68109;SHT30;54893;49.864;19.084;2023-04-15T20:55:55;7.07;97.18
68109;SHT30;54893;49.864;19.084;2023-04-15T21:00:55;7.09;95.89
68109;SHT30;54893;49.864;19.084;2023-04-15T21:05:57;7.27;91.81
68109;SHT30;54893;49.864;19.084;2023-04-15T21:10:58;7.33;93.56
68109;SHT30;54893;49.864;19.084;2023-04-15T21:15:58;7.43;94.46
68109;SHT30;54893;49.864;19.084;2023-04-15T21:20:59;7.22;93.49
68109;SHT30;54893;49.864;19.084;2023-04-15T21:26:00;7.34;91.59
68109;SHT30;54893;49.864;19.084;2023-04-15T21:31:01;7.29;92.50
68109;SHT30;54893;49.864;19.084;2023-04-15T21:36:01;7.15;93.64
68109;SHT30;54893;49.864;19.084;2023-04-15T21:41:02;6.96;94.54
68109;SHT30;54893;49.864;19.084;2023-04-15T21:46:05;6.92;95.73
68109;SHT30;54893;49.864;19.084;2023-04-15T21:51:06;7.05;92.06
68109;SHT30;54893;49.864;19.084;2023-04-15T21:56:07;7.05;93.13
68109;SHT30;54893;49.864;19.084;2023-04-15T22:01:07;6.99;92.07
68109;SHT30;54893;49.864;19.084;2023-04-15T22:06:08;6.92;93.87
68109;SHT30;54893;49.864;19.084;2023-04-15T22:11:09;6.93;92.75
68109;SHT30;54893;49.864;19.084;2023-04-15T22:16:16;6.89;94.35
68109;SHT30;54893;49.864;19.084;2023-04-15T22:21:17;6.76;93.49
68109;SHT30;54893;49.864;19.084;2023-04-15T22:26:17;6.78;93.03
68109;SHT30;54893;49.864;19.084;2023-04-15T22:31:17;6.76;92.67
68109;SHT30;54893;49.864;19.084;2023-04-15T22:36:18;6.83;92.74
68109;SHT30;54893;49.864;19.084;2023-04-15T22:41:18;6.71;92.77
68109;SHT30;54893;49.864;19.084;2023-04-15T22:46:18;6.53;94.02
68109;SHT30;54893;49.864;19.084;2023-04-15T22:51:23;6.29;93.88
68109;SHT30;54893;49.864;19.084;2023-04-15T22:56:25;6.17;94.25
68109;SHT30;54893;49.864;19.084;2023-04-15T23:01:26;6.29;92.87
68109;SHT30;54893;49.864;19.084;2023-04-15T23:06:26;6.46;92.87
68109;SHT30;54893;49.864;19.084;2023-04-15T23:11:27;6.46;92.71
68109;SHT30;54893;49.864;19.084;2023-04-15T23:16:27;6.42;92.65
68109;SHT30;54893;49.864;19.084;2023-04-15T23:21:27;6.20;93.19
68109;SHT30;54893;49.864;19.084;2023-04-15T23:26:28;5.97;94.36
68109;SHT30;54893;49.864;19.084;2023-04-15T23:31:28;5.59;95.59
68109;SHT30;54893;49.864;19.084;2023-04-15T23:36:29;5.89;93.85
68109;SHT30;54893;49.864;19.084;2023-04-15T23:41:29;6.01;93.56
68109;SHT30;54893;49.864;19.084;2023-04-15T23:46:29;5.89;94.96
68109;SHT30;54893;49.864;19.084;2023-04-15T23:51:30;5.77;94.54
68109;SHT30;54893;49.864;19.084;2023-04-15T23:56:30;5.75;93.78
